Flight Track Log - Related Links

Times and Time Zones

All times are in EDT time to prevent confusion due to time zone crossing. See the N26141 flight status page for this flight to view local times or setup timezone preferences in your user account.

Time Position Orientation Groundspeed Altitude Reporting Facility
EDT Latitude Longitude Course Direction KTS MPH feet Rate Location/Type
Tue 07:02:10 AM 36.1956 -95.9150 58° Northeast 168 193 1,400  Level Kansas City Center
Tue 07:02:58 AM 36.2314 -95.9414 329° Northwest 234 269 3,100 2,047 Climbing Kansas City Center
Tue 07:03:35 AM 36.2661 -95.9139 33° Northeast 273 314 4,300 2,536 Climbing Kansas City Center
Tue 07:04:35 AM 36.3053 -95.8275 61° Northeast 285 328 7,200 2,826 Climbing Kansas City Center
Tue 07:05:00 AM 36.4018 -95.4131 58° Northeast  Level FlightAware Approximate
Tue 07:05:36 AM 36.3428 -95.7411 62° Northeast 284 327 10,000  Level Kansas City Center
Tue 07:06:00 AM 36.4598 -95.2970 58° Northeast  Level FlightAware Approximate
Tue 07:06:36 AM 36.3858 -95.6442 61° Northeast 313 360 11,100  Level Kansas City Center
Tue 07:07:00 AM 36.5109 -95.1785 58° Northeast  Level FlightAware Approximate
Tue 07:07:37 AM 36.4333 -95.5342 62° Northeast 348 400 13,100  Level Kansas City Center
Tue 07:08:38 AM 36.4828 -95.4197 62° Northeast 357 411 15,100 1,785 Climbing Kansas City Center
Tue 07:09:38 AM 36.5361 -95.2972 62° Northeast 369 425 16,700 1,736 Climbing Kansas City Center
Tue 07:10:39 AM 36.5856 -95.1808 62° Northeast 378 435 18,600 1,785 Climbing Kansas City Center
Tue 07:11:39 AM 36.6328 -95.0689 62° Northeast 383 441 20,300 1,587 Climbing Kansas City Center
Tue 07:12:40 AM 36.6842 -94.9478 62° Northeast 391 450 21,800 1,574 Climbing Kansas City Center
Tue 07:13:41 AM 36.7361 -94.8239 62° Northeast 400 460 23,500 1,686 Climbing Kansas City Center
Tue 07:14:41 AM 36.7892 -94.7008 62° Northeast 402 463 25,200 1,785 Climbing Kansas City Center
Tue 07:15:42 AM 36.8403 -94.5786 62° Northeast 398 458 27,100 1,869 Climbing Kansas City Center
Tue 07:16:43 AM 36.8908 -94.4617 62° Northeast 389 448 29,000 1,869 Climbing Kansas City Center
Tue 07:17:44 AM 36.9392 -94.3494 62° Northeast 377 434 30,900 1,835 Climbing Kansas City Center
Tue 07:18:44 AM 36.9847 -94.2383 63° Northeast 363 418 32,700 1,636 Climbing Kansas City Center
Tue 07:19:45 AM 37.0297 -94.1297 63° Northeast 355 409 34,200 1,131 Climbing Kansas City Center
Tue 07:20:46 AM 37.0736 -94.0219 63° Northeast 350 403 35,000 393 Climbing Kansas City Center
Tue 07:21:47 AM 37.1225 -93.9078 62° Northeast 364 419 35,000  Level Kansas City Center
Tue 07:22:47 AM 37.1744 -93.7806 63° Northeast 396 456 35,000  Level Kansas City Center
Tue 07:23:48 AM 37.2283 -93.6483 63° Northeast 418 481 35,000  Level Kansas City Center
Tue 07:24:49 AM 37.2842 -93.5119 63° Northeast 434 499 35,000  Level Kansas City Center
Tue 07:25:50 AM 37.3397 -93.3747 63° Northeast 439 505 35,000  Level Kansas City Center
Tue 07:26:51 AM 37.4169 -93.2183 58° Northeast 439 505 35,000  Level Kansas City Center
Tue 07:27:51 AM 37.4878 -93.0939 54° Northeast 437 503 35,000  Level Kansas City Center
Tue 07:28:52 AM 37.5567 -92.9689 55° Northeast 435 501 35,000  Level Kansas City Center
Tue 07:29:53 AM 37.6253 -92.8428 55° Northeast 435 501 35,000  Level Kansas City Center
Tue 07:30:54 AM 37.6836 -92.7339 56° Northeast 436 502 35,000  Level Kansas City Center
Tue 07:31:55 AM 37.7511 -92.6083 56° Northeast 434 499 35,000  Level Kansas City Center
Tue 07:32:56 AM 37.8194 -92.4828 55° Northeast 434 499 35,000  Level Kansas City Center
Tue 07:33:57 AM 37.9011 -92.3308 56° Northeast 437 503 35,000  Level Kansas City Center
Tue 07:34:58 AM 37.9667 -92.2022 57° Northeast 438 504 35,000  Level Kansas City Center
Tue 07:35:59 AM 38.0350 -92.0775 55° Northeast 434 499 35,000  Level Kansas City Center
Tue 07:37:00 AM 38.1067 -91.9431 56° Northeast 429 494 35,000  Level Kansas City Center
Tue 07:38:01 AM 38.1731 -91.8175 56° Northeast 429 494 35,000  Level Kansas City Center
Tue 07:39:02 AM 38.2389 -91.6917 56° Northeast 428 493 35,000  Level Kansas City Center
Tue 07:40:03 AM 38.3044 -91.5667 56° Northeast 426 490 35,000  Level Kansas City Center
Tue 07:41:04 AM 38.3692 -91.4414 57° Northeast 424 488 35,000  Level Kansas City Center
Tue 07:42:05 AM 38.4278 -91.3275 57° Northeast 423 487 35,000  Level Kansas City Center
Tue 07:43:06 AM 38.4936 -91.2017 56° Northeast 425 489 35,000  Level Kansas City Center
Tue 07:44:07 AM 38.5583 -91.0769 56° Northeast 424 488 35,000  Level Kansas City Center
Tue 07:45:08 AM 38.6225 -90.9500 57° Northeast 424 488 35,000  Level Kansas City Center
Tue 07:46:09 AM 38.6997 -90.7997 57° Northeast 422 486 35,000  Level Kansas City Center
Tue 07:47:10 AM 38.7650 -90.6725 57° Northeast 422 486 35,000  Level Kansas City Center
Tue 07:48:11 AM 38.8239 -90.5606 56° Northeast 423 487 35,000 295 Level Kansas City Center
Tue 07:49:12 AM 38.8747 -90.4250 64° Northeast 421 484 35,600 732 Climbing Kansas City Center
Tue 07:50:14 AM 38.9106 -90.2828 72° East 417 480 36,500 683 Climbing Kansas City Center
Tue 07:51:15 AM 38.9519 -90.1186 72° East 418 481 37,000 246 Climbing Kansas City Center
Tue 07:52:16 AM 38.9897 -89.9669 72° East 421 484 37,000  Level Kansas City Center
Tue 07:53:17 AM 39.0253 -89.8228 72° East 422 486 37,000  Level Kansas City Center
Tue 07:54:18 AM 39.0608 -89.6778 72° East 425 489 37,000  Level Kansas City Center
Tue 07:55:19 AM 39.0961 -89.5325 73° East 425 489 37,000  Level Kansas City Center
Tue 07:56:20 AM 39.1331 -89.3789 73° East 420 483 37,000  Level Kansas City Center
Tue 07:57:22 AM 39.1625 -89.2542 73° East 418 481 37,000  Level Kansas City Center
Tue 07:58:23 AM 39.1975 -89.1094 73° East 422 486 37,000  Level Kansas City Center
Tue 07:59:24 AM 39.2317 -88.9669 73° East 419 482 37,000  Level Kansas City Center
Tue 08:00:25 AM 39.2686 -88.8267 71° East 416 479 37,000  Level Kansas City Center
Tue 08:01:26 AM 39.3072 -88.6544 74° East 417 480 37,000  Level Kansas City Center
Tue 08:02:28 AM 39.3372 -88.5289 73° East 416 479 37,000  Level Kansas City Center
Tue 08:03:29 AM 39.3703 -88.3847 73° East 415 478 37,000  Level Kansas City Center
Tue 08:04:30 AM 39.4019 -88.2417 74° East 414 476 37,000  Level Kansas City Center
Tue 08:05:32 AM 39.4406 -88.0717 74° East 410 472 37,000  Level Kansas City Center
Tue 08:06:33 AM 39.4725 -87.9281 74° East 411 473 37,000  Level Kansas City Center
Tue 08:07:33 AM 39.5053 -87.7819 74° East 415 478 37,000  Level Indianapolis Center
Tue 08:08:35 AM 39.5383 -87.6372 73° East 415 478 37,000  Level Indianapolis Center
Tue 08:09:37 AM 39.5717 -87.4881 74° East 422 486 37,000  Level Indianapolis Center
Tue 08:10:39 AM 39.6044 -87.3406 74° East 423 487 37,000  Level Indianapolis Center
Tue 08:11:40 AM 39.6378 -87.1933 74° East 424 488 37,000  Level Indianapolis Center
Tue 08:12:42 AM 39.6706 -87.0436 74° East 427 491 37,000  Level Indianapolis Center
Tue 08:13:44 AM 39.7033 -86.8928 74° East 430 495 37,000  Level Indianapolis Center
Tue 08:14:45 AM 39.7372 -86.7414 74° East 433 498 37,000  Level Indianapolis Center
Tue 08:15:47 AM 39.7706 -86.5875 74° East 438 504 37,000  Level Indianapolis Center
Tue 08:16:49 AM 39.8042 -86.4319 74° East 443 510 37,000  Level Indianapolis Center
Tue 08:17:50 AM 39.8444 -86.2422 74° East 449 517 37,000  Level Indianapolis Center
Tue 08:18:52 AM 39.8778 -86.0833 75° East 454 522 37,000  Level Indianapolis Center
Tue 08:19:54 AM 39.9128 -85.9208 74° East 453 521 37,000  Level Indianapolis Center
Tue 08:20:55 AM 39.9461 -85.7597 75° East 455 524 37,000  Level Indianapolis Center
Tue 08:21:57 AM 39.9786 -85.5986 75° East 456 525 37,000  Level Indianapolis Center
Tue 08:22:59 AM 40.0119 -85.4356 75° East 459 528 37,000  Level Indianapolis Center
Tue 08:24:00 AM 40.0439 -85.2725 76° East 461 531 37,000  Level Indianapolis Center
Tue 08:25:02 AM 40.0803 -85.1078 74° East 467 537 37,000  Level Indianapolis Center
Tue 08:26:04 AM 40.1122 -84.9436 76° East 465 535 37,000  Level Indianapolis Center
Tue 08:27:05 AM 40.1450 -84.7775 75° East 466 536 37,000  Level Indianapolis Center
Tue 08:28:07 AM 40.1783 -84.6117 75° East 467 537 37,000  Level Indianapolis Center
Tue 08:29:08 AM 40.2114 -84.4453 75° East 468 539 37,000  Level Indianapolis Center
Tue 08:30:10 AM 40.2483 -84.2506 76° East 468 539 37,000 -49 Level Indianapolis Center
Tue 08:31:11 AM 40.2811 -84.0839 75° East 469 540 36,900  Descending Indianapolis Center
Tue 08:32:13 AM 40.3483 -83.9414 58° Northeast 454 522 37,000 48 Climbing Indianapolis Center
Tue 08:33:15 AM 40.4264 -83.8069 53° Northeast 457 526 37,000  Level Indianapolis Center
Tue 08:34:16 AM 40.5036 -83.6719 53° Northeast 456 525 37,000 -49 Level Indianapolis Center
Tue 08:35:18 AM 40.5808 -83.5386 53° Northeast 454 522 36,900  Descending Indianapolis Center
Tue 08:36:20 AM 40.6567 -83.4058 53° Northeast 450 518 37,000 69 Climbing Indianapolis Center
Tue 08:36:45 AM 40.6944 -83.3436 51° Northeast 445 512 37,000  Level Cleveland Center
Tue 08:37:45 AM 40.7706 -83.2125 53° Northeast 445 512 37,000  Level Cleveland Center
Tue 08:38:45 AM 40.8358 -83.0942 54° Northeast 445 512 37,000  Level Cleveland Center
Tue 08:39:45 AM 40.9072 -82.9678 53° Northeast 439 505 37,000  Level Cleveland Center
Tue 08:40:45 AM 40.9872 -82.8250 53° Northeast 439 505 37,000  Level Cleveland Center
Tue 08:41:45 AM 41.0628 -82.6925 53° Northeast 439 505 37,000  Level Cleveland Center
Tue 08:42:45 AM 41.1361 -82.5625 53° Northeast 444 511 37,000  Level Cleveland Center
Tue 08:43:45 AM 41.2092 -82.4297 54° Northeast 444 511 37,000  Level Cleveland Center
Tue 08:44:45 AM 41.2758 -82.2989 56° Northeast 444 511 37,000  Level Cleveland Center
Tue 08:45:45 AM 41.3528 -82.1653 52° Northeast 444 511 37,000  Level Cleveland Center
Tue 08:46:45 AM 41.4008 -82.0114 67° East 436 502 37,000  Level Cleveland Center
Tue 08:47:45 AM 41.4419 -81.8683 69° East 443 510 37,000  Level Cleveland Center
Tue 08:48:45 AM 41.4894 -81.7114 68° East 453 521 37,000  Level Cleveland Center
Tue 08:49:45 AM 41.5328 -81.5511 70° East 458 527 37,000  Level Cleveland Center
Tue 08:50:45 AM 41.5819 -81.3769 69° East 450 518 37,000  Level Cleveland Center
Tue 08:51:45 AM 41.6247 -81.2192 70° East 450 518 37,000  Level Cleveland Center
Tue 08:52:45 AM 41.6714 -81.0586 69° East 450 518 37,000  Level Cleveland Center
Tue 08:53:45 AM 41.7156 -80.8947 70° East 450 518 37,000  Level Cleveland Center
Tue 08:54:45 AM 41.7597 -80.7361 69° East 450 518 37,000  Level Cleveland Center
Tue 08:55:45 AM 41.7953 -80.5719 74° East 450 518 37,000  Level Cleveland Center
Tue 08:56:45 AM 41.7828 -80.3967 95° East 455 524 37,000  Level Cleveland Center
Tue 08:57:45 AM 41.7633 -80.2214 98° East 466 536 37,000  Level Cleveland Center
Tue 08:58:45 AM 41.7483 -80.0628 97° East 471 542 37,000  Level Cleveland Center
Tue 08:59:45 AM 41.7306 -79.8875 98° East 476 548 37,000  Level Cleveland Center
Tue 09:00:45 AM 41.7108 -79.7125 99° East 476 548 37,000  Level Cleveland Center
Tue 09:01:45 AM 41.6925 -79.5264 97° East 476 548 37,000  Level Cleveland Center
Tue 09:02:45 AM 41.6742 -79.3572 98° East 465 535 37,000  Level Cleveland Center
Tue 09:03:45 AM 41.6556 -79.1853 98° East 465 535 37,000  Level Cleveland Center
Tue 09:04:45 AM 41.6367 -79.0161 98° East 465 535 37,000  Level Cleveland Center
Tue 09:05:45 AM 41.6156 -78.8472 99° East 465 535 37,000  Level Cleveland Center
Tue 09:06:45 AM 41.5961 -78.6756 99° East 465 535 37,000 -250 Level Cleveland Center
Tue 09:07:45 AM 41.5764 -78.5014 99° East 465 535 36,500 -1,573 Descending Cleveland Center
Tue 09:09:29 AM 41.5436 -78.2244 99° East 493 567 32,700 -2,012 Descending New York Center
Tue 09:10:29 AM 41.5233 -78.0503 99° East 488 562 31,000 -843 Descending New York Center
Tue 09:11:30 AM 41.5006 -77.8761 100° East 483 556 31,000  Level New York Center
Tue 09:12:28 AM 41.4753 -77.7017 101° East 478 550 31,000  Level New York Center
Tue 09:13:28 AM 41.4500 -77.5275 101° East 473 544 31,000  Level New York Center
Tue 09:14:29 AM 41.4222 -77.3531 102° East 473 544 31,000  Level New York Center
Tue 09:15:30 AM 41.3967 -77.1761 101° East 473 544 31,000 -151 Level New York Center
Tue 09:16:28 AM 41.3725 -77.0025 100° East 473 544 30,700 -1,109 Descending New York Center
Tue 09:17:29 AM 41.3439 -76.8311 102° East 473 544 28,800 -1,967 Descending New York Center
Tue 09:18:30 AM 41.3044 -76.6592 107° East 478 550 26,700 -2,231 Descending New York Center
Tue 09:19:30 AM 41.2606 -76.4953 110° East 478 550 24,300 -2,542 Descending New York Center
Tue 09:20:28 AM 41.2181 -76.3344 109° East 471 542 21,700 -2,797 Descending New York Center
Tue 09:21:28 AM 41.1739 -76.1681 109° East 442 509 18,800 -1,850 Descending New York Center
Tue 09:22:28 AM 41.1364 -76.0247 109° East 419 482 18,000 -496 Descending New York Center
Tue 09:23:29 AM 41.1003 -75.8981 111° Southeast 411 473 17,800 -1,289 Descending New York Center
Tue 09:24:29 AM 41.0625 -75.7575 110° East 375 432 15,400 -2,182 Descending New York Center
Tue 09:25:30 AM 41.0281 -75.6367 111° Southeast 356 410 13,400 -1,240 Descending New York Center
Tue 09:26:30 AM 40.9953 -75.5217 111° Southeast 344 396 12,900 -203 Descending New York Center
Tue 09:27:28 AM 40.9683 -75.4153 109° East 324 373 13,000 -101 Climbing New York Center
Tue 09:28:29 AM 40.9369 -75.3086 111° Southeast 318 366 12,700 -1,041 Descending New York Center
Tue 09:29:29 AM 40.9075 -75.2025 110° East 313 360 10,900 -1,714 Descending New York Center
Tue 09:30:28 AM 40.8781 -75.1044 112° Southeast 300 345 9,300 -1,537 Descending New York Center
Tue 09:31:30 AM 40.8558 -75.0236 110° East 274 315 7,800 -1,150 Descending New York Center
Tue 09:32:28 AM 40.8261 -74.9203 111° Southeast 269 310 7,000 -407 Descending New York Center
Tue 09:33:28 AM 40.7956 -74.8442 118° Southeast 264 304 7,000 -99 Level New York Center
Tue 09:34:29 AM 40.7569 -74.7544 120° Southeast 258 297 6,800 -492 Descending New York Center
Tue 09:35:30 AM 40.7197 -74.6864 126° Southeast 258 297 6,000 -893 Descending New York Center
Tue 09:36:30 AM 40.6767 -74.5964 122° Southeast 258 297 5,000 -800 Descending New York Center
Tue 09:36:45 AM 40.6667 -74.5667 114° Southeast 262 302 5,000  Level New York TRACON
Tue 09:37:51 AM 40.6167 -74.4833 128° Southeast 260 299 5,000 -95 Level New York TRACON
Tue 09:38:51 AM 40.5833 -74.4167 123° Southeast 225 259 4,800 -632 Descending New York TRACON
Tue 09:39:45 AM 40.5500 -74.3500 123° Southeast 209 241 3,800 -1,050 Descending New York TRACON
Tue 09:40:51 AM 40.5667 -74.2667 75° East 204 235 2,700 -800 Descending New York TRACON
Tue 09:41:45 AM 40.5833 -74.2333 57° Northeast 179 206 2,200 -556 Descending New York TRACON

Login

Don't have an account? Register now (free) for customized features, flight alerts, and more!